RYR4009 GMMX-LEZL
Flight info
| Callsign | RYR4009 |
|---|---|
| Flight time | 1h 8m |
| Altitude | 34000 |
| Route | MABAP UR722 SAK UG5 KORIS L27 VJF |
| Aircraft | B738/M-SDE2E3FGHIRWXY/LB1 |
Departure
| Time | 2026-04-14 11:42 |
|---|---|
| Airport | Marrakesh Menara Airport (GMMX) |
Arrival
| Time | 2026-04-14 12:50 |
|---|---|
| Airport | Seville Airport (LEZL) |
| Time | Latitude | Longitude | Altitude | Speed | Heading |
|---|---|---|---|---|---|
| 2026-04-14 11:24 | 31.60308 | -8.02546 | 1546 ft | 0 kts | 186° |
| 2026-04-14 11:33 | 31.60321 | -8.02544 | 1545 ft | 2 kts | 186° |
| 2026-04-14 11:33 | 31.60337 | -8.02542 | 1544 ft | 2 kts | 186° |
| 2026-04-14 11:34 | 31.60369 | -8.02536 | 1548 ft | 2 kts | 217° |
| 2026-04-14 11:34 | 31.60377 | -8.02524 | 1548 ft | 1 kts | 273° |
| 2026-04-14 11:34 | 31.60377 | -8.02516 | 1537 ft | 0 kts | 282° |
| 2026-04-14 11:36 | 31.60378 | -8.02518 | 1537 ft | 1 kts | 300° |
| 2026-04-14 11:36 | 31.60412 | -8.02551 | 1539 ft | 12 kts | 309° |
| 2026-04-14 11:36 | 31.60435 | -8.02677 | 1548 ft | 18 kts | 277° |
| 2026-04-14 11:37 | 31.60445 | -8.02825 | 1548 ft | 18 kts | 276° |
| 2026-04-14 11:37 | 31.60458 | -8.02969 | 1545 ft | 17 kts | 276° |
| 2026-04-14 11:37 | 31.60470 | -8.03107 | 1548 ft | 17 kts | 276° |
| 2026-04-14 11:37 | 31.60481 | -8.03240 | 1541 ft | 16 kts | 276° |
| 2026-04-14 11:38 | 31.60492 | -8.03367 | 1547 ft | 15 kts | 275° |
| 2026-04-14 11:38 | 31.60502 | -8.03490 | 1540 ft | 15 kts | 275° |
| 2026-04-14 11:38 | 31.60511 | -8.03608 | 1543 ft | 14 kts | 275° |
| 2026-04-14 11:38 | 31.60526 | -8.03727 | 1547 ft | 17 kts | 279° |
| 2026-04-14 11:39 | 31.60543 | -8.03898 | 1542 ft | 25 kts | 275° |
| 2026-04-14 11:39 | 31.60561 | -8.04125 | 1547 ft | 31 kts | 275° |
| 2026-04-14 11:39 | 31.60581 | -8.04351 | 1547 ft | 27 kts | 277° |
| 2026-04-14 11:39 | 31.60599 | -8.04559 | 1546 ft | 25 kts | 275° |
| 2026-04-14 11:40 | 31.60614 | -8.04754 | 1546 ft | 23 kts | 275° |
| 2026-04-14 11:40 | 31.60630 | -8.04938 | 1537 ft | 22 kts | 276° |
| 2026-04-14 11:40 | 31.60646 | -8.05117 | 1546 ft | 22 kts | 276° |
| 2026-04-14 11:40 | 31.60705 | -8.05261 | 1543 ft | 21 kts | 349° |
| 2026-04-14 11:41 | 31.60830 | -8.05191 | 1529 ft | 23 kts | 81° |
| 2026-04-14 11:41 | 31.60813 | -8.05084 | 1527 ft | 4 kts | 91° |
| 2026-04-14 11:41 | 31.60807 | -8.04978 | 1533 ft | 40 kts | 95° |
| 2026-04-14 11:41 | 31.60752 | -8.04355 | 1536 ft | 111 kts | 95° |
| 2026-04-14 11:42 | 31.60657 | -8.03217 | 1574 ft | 165 kts | 96° |
| 2026-04-14 11:42 | 31.60536 | -8.01801 | 2147 ft | 175 kts | 97° |
| 2026-04-14 11:42 | 31.60129 | -8.00488 | 3023 ft | 172 kts | 118° |
| 2026-04-14 11:42 | 31.59600 | -7.99213 | 3836 ft | 175 kts | 115° |
| 2026-04-14 11:43 | 31.59102 | -7.97902 | 4682 ft | 177 kts | 114° |
| 2026-04-14 11:43 | 31.58591 | -7.96521 | 5220 ft | 199 kts | 114° |
| 2026-04-14 11:43 | 31.58013 | -7.94929 | 5458 ft | 225 kts | 113° |
| 2026-04-14 11:43 | 31.57371 | -7.93142 | 5762 ft | 248 kts | 113° |
| 2026-04-14 11:44 | 31.56697 | -7.91244 | 6431 ft | 256 kts | 109° |
| 2026-04-14 11:44 | 31.56487 | -7.89185 | 7333 ft | 256 kts | 82° |
| 2026-04-14 11:44 | 31.57033 | -7.87199 | 8181 ft | 260 kts | 59° |
| 2026-04-14 11:44 | 31.58209 | -7.85591 | 8992 ft | 263 kts | 36° |
| 2026-04-14 11:45 | 31.59851 | -7.84663 | 9797 ft | 265 kts | 12° |
| 2026-04-14 11:45 | 31.61692 | -7.84624 | 10586 ft | 267 kts | 347° |
| 2026-04-14 11:45 | 31.63393 | -7.85494 | 11356 ft | 270 kts | 323° |
| 2026-04-14 11:45 | 31.64708 | -7.87061 | 12113 ft | 272 kts | 307° |
| 2026-04-14 11:46 | 31.65839 | -7.88839 | 12863 ft | 276 kts | 306° |
| 2026-04-14 11:46 | 31.66981 | -7.90688 | 13606 ft | 279 kts | 305° |
| 2026-04-14 11:46 | 31.68118 | -7.92549 | 14336 ft | 282 kts | 305° |
| 2026-04-14 11:46 | 31.69266 | -7.94434 | 15064 ft | 285 kts | 305° |
| 2026-04-14 11:47 | 31.70426 | -7.96340 | 15760 ft | 289 kts | 305° |
| 2026-04-14 11:47 | 31.71597 | -7.98263 | 16440 ft | 292 kts | 305° |
| 2026-04-14 11:47 | 31.72772 | -8.00192 | 17115 ft | 295 kts | 305° |
| 2026-04-14 11:47 | 31.73984 | -8.02185 | 17784 ft | 298 kts | 305° |
| 2026-04-14 11:48 | 31.75183 | -8.04155 | 18409 ft | 302 kts | 305° |
| 2026-04-14 11:48 | 31.76409 | -8.06171 | 19042 ft | 304 kts | 305° |
| 2026-04-14 11:48 | 31.77658 | -8.08224 | 19683 ft | 307 kts | 305° |
| 2026-04-14 11:48 | 31.78907 | -8.10278 | 20305 ft | 310 kts | 305° |
| 2026-04-14 11:49 | 31.80165 | -8.12350 | 20886 ft | 313 kts | 305° |
| 2026-04-14 11:49 | 31.81637 | -8.14239 | 21417 ft | 317 kts | 325° |
| 2026-04-14 11:49 | 31.83614 | -8.15351 | 21760 ft | 329 kts | 347° |
| 2026-04-14 11:49 | 31.85950 | -8.15790 | 22145 ft | 338 kts | 352° |
| 2026-04-14 11:50 | 31.88265 | -8.16119 | 22669 ft | 341 kts | 353° |
| 2026-04-14 11:50 | 31.90630 | -8.16441 | 23261 ft | 342 kts | 353° |
| 2026-04-14 11:50 | 31.93005 | -8.16773 | 23815 ft | 345 kts | 353° |
| 2026-04-14 11:51 | 31.97811 | -8.17477 | 24816 ft | 351 kts | 352° |
| 2026-04-14 11:51 | 32.00248 | -8.17845 | 25313 ft | 354 kts | 352° |
| 2026-04-14 11:51 | 32.02700 | -8.18218 | 25795 ft | 357 kts | 352° |
| 2026-04-14 11:51 | 32.05172 | -8.18595 | 26264 ft | 360 kts | 352° |
| 2026-04-14 11:52 | 32.07664 | -8.18976 | 26722 ft | 362 kts | 352° |
| 2026-04-14 11:52 | 32.10173 | -8.19359 | 27167 ft | 365 kts | 352° |
| 2026-04-14 11:52 | 32.12708 | -8.19674 | 27584 ft | 368 kts | 1° |
| 2026-04-14 11:52 | 32.15270 | -8.19398 | 27993 ft | 371 kts | 7° |
| 2026-04-14 11:53 | 32.17826 | -8.18967 | 28417 ft | 373 kts | 8° |
| 2026-04-14 11:53 | 32.20402 | -8.18505 | 28819 ft | 375 kts | 8° |
| 2026-04-14 11:53 | 32.22990 | -8.18044 | 29233 ft | 377 kts | 8° |
| 2026-04-14 11:53 | 32.25585 | -8.17594 | 29646 ft | 378 kts | 8° |
| 2026-04-14 11:54 | 32.28204 | -8.17151 | 30018 ft | 381 kts | 8° |
| 2026-04-14 11:54 | 32.30825 | -8.16716 | 30347 ft | 384 kts | 7° |
| 2026-04-14 11:54 | 32.33488 | -8.16279 | 30685 ft | 386 kts | 7° |
| 2026-04-14 11:54 | 32.36160 | -8.15843 | 31026 ft | 388 kts | 7° |
| 2026-04-14 11:55 | 32.38844 | -8.15405 | 31373 ft | 390 kts | 7° |
| 2026-04-14 11:55 | 32.41537 | -8.14967 | 31704 ft | 392 kts | 7° |
| 2026-04-14 11:55 | 32.44242 | -8.14526 | 32018 ft | 394 kts | 7° |
| 2026-04-14 11:55 | 32.46964 | -8.14082 | 32317 ft | 396 kts | 7° |
| 2026-04-14 11:56 | 32.49694 | -8.13637 | 32616 ft | 398 kts | 7° |
| 2026-04-14 11:56 | 32.51518 | -8.13339 | 32795 ft | 399 kts | 7° |
| 2026-04-14 11:56 | 32.54278 | -8.12888 | 33082 ft | 401 kts | 7° |
| 2026-04-14 11:56 | 32.57048 | -8.12434 | 33383 ft | 402 kts | 7° |
| 2026-04-14 11:57 | 32.59824 | -8.11980 | 33652 ft | 404 kts | 7° |
| 2026-04-14 11:57 | 32.62612 | -8.11524 | 33903 ft | 406 kts | 7° |
| 2026-04-14 11:57 | 32.68283 | -8.10594 | 34006 ft | 418 kts | 7° |
| 2026-04-14 11:58 | 32.74132 | -8.09636 | 34014 ft | 430 kts | 7° |
| 2026-04-14 11:58 | 32.80115 | -8.08665 | 34008 ft | 437 kts | 7° |
| 2026-04-14 11:59 | 32.86163 | -8.07681 | 33998 ft | 439 kts | 7° |
| 2026-04-14 11:59 | 32.92145 | -8.06583 | 33987 ft | 430 kts | 14° |
| 2026-04-14 12:00 | 32.97639 | -8.03883 | 34012 ft | 429 kts | 28° |
| 2026-04-14 12:00 | 33.02861 | -8.00386 | 34002 ft | 432 kts | 29° |
| 2026-04-14 12:01 | 33.08110 | -7.96859 | 34004 ft | 434 kts | 29° |
| 2026-04-14 12:01 | 33.13392 | -7.93355 | 34003 ft | 435 kts | 28° |
| 2026-04-14 12:02 | 33.18696 | -7.89854 | 34001 ft | 436 kts | 28° |
| 2026-04-14 12:02 | 33.24009 | -7.86346 | 34001 ft | 436 kts | 28° |
| 2026-04-14 12:03 | 33.29308 | -7.82841 | 34000 ft | 435 kts | 28° |
| 2026-04-14 12:03 | 33.34589 | -7.79341 | 34000 ft | 434 kts | 28° |
| 2026-04-14 12:04 | 33.39856 | -7.75846 | 34001 ft | 432 kts | 28° |
| 2026-04-14 12:04 | 33.45106 | -7.72357 | 34001 ft | 431 kts | 29° |
| 2026-04-14 12:05 | 33.50340 | -7.68874 | 34001 ft | 430 kts | 29° |
| 2026-04-14 12:05 | 33.55603 | -7.65482 | 34002 ft | 429 kts | 26° |
| 2026-04-14 12:06 | 33.60940 | -7.62292 | 34004 ft | 428 kts | 26° |
| 2026-04-14 12:06 | 33.66229 | -7.59135 | 34000 ft | 428 kts | 26° |
| 2026-04-14 12:07 | 33.71583 | -7.55902 | 34002 ft | 428 kts | 26° |
| 2026-04-14 12:07 | 33.76860 | -7.52696 | 34002 ft | 428 kts | 26° |
| 2026-04-14 12:08 | 33.82172 | -7.49461 | 34003 ft | 428 kts | 26° |
| 2026-04-14 12:08 | 33.87491 | -7.46218 | 34003 ft | 429 kts | 26° |
| 2026-04-14 12:09 | 33.92819 | -7.42965 | 33999 ft | 429 kts | 26° |
| 2026-04-14 12:09 | 33.98148 | -7.39707 | 34002 ft | 430 kts | 26° |
| 2026-04-14 12:10 | 34.03486 | -7.36439 | 33999 ft | 430 kts | 27° |
| 2026-04-14 12:10 | 34.08825 | -7.33166 | 34002 ft | 431 kts | 27° |
| 2026-04-14 12:11 | 34.14165 | -7.29889 | 34001 ft | 431 kts | 27° |
| 2026-04-14 12:11 | 34.19507 | -7.26607 | 34001 ft | 431 kts | 27° |
| 2026-04-14 12:12 | 34.24844 | -7.23323 | 34000 ft | 431 kts | 27° |
| 2026-04-14 12:12 | 34.30184 | -7.20031 | 34001 ft | 430 kts | 27° |
| 2026-04-14 12:13 | 34.35509 | -7.16744 | 33999 ft | 430 kts | 27° |
| 2026-04-14 12:13 | 34.40840 | -7.13449 | 34001 ft | 430 kts | 27° |
| 2026-04-14 12:14 | 34.46159 | -7.10156 | 34001 ft | 429 kts | 27° |
| 2026-04-14 12:14 | 34.51476 | -7.06859 | 34000 ft | 429 kts | 27° |
| 2026-04-14 12:15 | 34.56784 | -7.03563 | 34002 ft | 429 kts | 27° |
| 2026-04-14 12:15 | 34.62098 | -7.00268 | 34002 ft | 429 kts | 26° |
| 2026-04-14 12:16 | 34.67392 | -6.97028 | 34001 ft | 429 kts | 26° |
| 2026-04-14 12:16 | 34.72718 | -6.93773 | 34000 ft | 429 kts | 26° |
| 2026-04-14 12:17 | 34.78030 | -6.90516 | 34002 ft | 429 kts | 26° |
| 2026-04-14 12:17 | 34.83363 | -6.87238 | 34000 ft | 429 kts | 26° |
| 2026-04-14 12:18 | 34.88680 | -6.83965 | 34002 ft | 429 kts | 26° |
| 2026-04-14 12:18 | 34.94015 | -6.80675 | 34002 ft | 429 kts | 26° |
| 2026-04-14 12:19 | 34.99335 | -6.77390 | 34000 ft | 429 kts | 26° |
| 2026-04-14 12:19 | 35.04662 | -6.74096 | 34000 ft | 429 kts | 26° |
| 2026-04-14 12:20 | 35.09980 | -6.70802 | 34001 ft | 429 kts | 26° |
| 2026-04-14 12:20 | 35.15310 | -6.67496 | 34002 ft | 429 kts | 26° |
| 2026-04-14 12:21 | 35.20633 | -6.64189 | 34001 ft | 429 kts | 27° |
| 2026-04-14 12:21 | 35.25952 | -6.60880 | 33999 ft | 429 kts | 27° |
| 2026-04-14 12:22 | 35.31269 | -6.57567 | 34002 ft | 429 kts | 27° |
| 2026-04-14 12:22 | 35.36565 | -6.54262 | 33986 ft | 420 kts | 27° |
| 2026-04-14 12:23 | 35.41705 | -6.51050 | 33991 ft | 412 kts | 27° |
| 2026-04-14 12:23 | 35.46804 | -6.47834 | 33744 ft | 413 kts | 27° |
| 2026-04-14 12:24 | 35.49330 | -6.46189 | 33458 ft | 407 kts | 28° |
| 2026-04-14 12:24 | 35.51817 | -6.44555 | 33067 ft | 404 kts | 28° |
| 2026-04-14 12:24 | 35.54285 | -6.42932 | 32702 ft | 401 kts | 28° |
| 2026-04-14 12:24 | 35.56743 | -6.41318 | 32329 ft | 398 kts | 28° |
| 2026-04-14 12:25 | 35.59175 | -6.39723 | 31959 ft | 396 kts | 28° |
| 2026-04-14 12:25 | 35.61602 | -6.38134 | 31591 ft | 393 kts | 28° |
| 2026-04-14 12:25 | 35.64004 | -6.36560 | 31217 ft | 391 kts | 28° |
| 2026-04-14 12:25 | 35.66397 | -6.34992 | 30847 ft | 389 kts | 28° |
| 2026-04-14 12:26 | 35.68767 | -6.33437 | 30481 ft | 386 kts | 28° |
| 2026-04-14 12:26 | 35.71142 | -6.31879 | 30119 ft | 384 kts | 28° |
| 2026-04-14 12:26 | 35.73496 | -6.30333 | 29751 ft | 382 kts | 28° |
| 2026-04-14 12:26 | 35.75838 | -6.28796 | 29349 ft | 380 kts | 28° |
| 2026-04-14 12:27 | 35.78155 | -6.27278 | 28962 ft | 378 kts | 27° |
| 2026-04-14 12:27 | 35.80482 | -6.25752 | 28573 ft | 376 kts | 28° |
| 2026-04-14 12:27 | 35.82784 | -6.24241 | 28193 ft | 374 kts | 28° |
| 2026-04-14 12:27 | 35.85073 | -6.22751 | 27812 ft | 372 kts | 27° |
| 2026-04-14 12:28 | 35.87358 | -6.21284 | 27428 ft | 370 kts | 27° |
| 2026-04-14 12:28 | 35.89637 | -6.19823 | 27053 ft | 368 kts | 27° |
| 2026-04-14 12:28 | 35.91892 | -6.18373 | 26667 ft | 366 kts | 27° |
| 2026-04-14 12:28 | 35.94149 | -6.16920 | 26293 ft | 364 kts | 27° |
| 2026-04-14 12:29 | 35.96386 | -6.15474 | 25916 ft | 362 kts | 27° |
| 2026-04-14 12:29 | 35.98608 | -6.14036 | 25529 ft | 361 kts | 27° |
| 2026-04-14 12:29 | 36.00826 | -6.12600 | 25139 ft | 359 kts | 27° |
| 2026-04-14 12:29 | 36.03034 | -6.11169 | 24761 ft | 358 kts | 27° |
| 2026-04-14 12:30 | 36.05234 | -6.09742 | 24363 ft | 356 kts | 27° |
| 2026-04-14 12:30 | 36.07421 | -6.08323 | 23985 ft | 355 kts | 27° |
| 2026-04-14 12:30 | 36.09606 | -6.06904 | 23599 ft | 353 kts | 27° |
| 2026-04-14 12:30 | 36.11781 | -6.05491 | 23212 ft | 352 kts | 27° |
| 2026-04-14 12:31 | 36.13941 | -6.04087 | 22832 ft | 351 kts | 27° |
| 2026-04-14 12:31 | 36.16070 | -6.02702 | 22446 ft | 349 kts | 27° |
| 2026-04-14 12:31 | 36.18212 | -6.01308 | 22073 ft | 348 kts | 27° |
| 2026-04-14 12:31 | 36.20356 | -5.99912 | 21671 ft | 347 kts | 27° |
| 2026-04-14 12:32 | 36.22487 | -5.98524 | 21308 ft | 346 kts | 27° |
| 2026-04-14 12:32 | 36.24715 | -5.97420 | 20846 ft | 346 kts | 10° |
| 2026-04-14 12:32 | 36.27098 | -5.97031 | 20404 ft | 346 kts | 5° |
| 2026-04-14 12:32 | 36.29494 | -5.96753 | 20001 ft | 345 kts | 5° |
| 2026-04-14 12:33 | 36.31907 | -5.96483 | 19641 ft | 343 kts | 5° |
| 2026-04-14 12:33 | 36.34247 | -5.96208 | 19285 ft | 341 kts | 5° |
| 2026-04-14 12:33 | 36.36601 | -5.95916 | 18928 ft | 339 kts | 5° |
| 2026-04-14 12:33 | 36.38947 | -5.95615 | 18564 ft | 338 kts | 6° |
| 2026-04-14 12:34 | 36.41272 | -5.95310 | 18205 ft | 336 kts | 6° |
| 2026-04-14 12:34 | 36.43592 | -5.95004 | 17848 ft | 334 kts | 6° |
| 2026-04-14 12:34 | 36.45895 | -5.94699 | 17481 ft | 332 kts | 6° |
| 2026-04-14 12:34 | 36.48194 | -5.94395 | 17122 ft | 331 kts | 6° |
| 2026-04-14 12:35 | 36.50476 | -5.94375 | 16738 ft | 329 kts | 350° |
| 2026-04-14 12:35 | 36.52706 | -5.94931 | 16408 ft | 326 kts | 347° |
| 2026-04-14 12:35 | 36.54924 | -5.95547 | 16030 ft | 325 kts | 347° |
| 2026-04-14 12:35 | 36.57126 | -5.96162 | 15682 ft | 324 kts | 347° |
| 2026-04-14 12:36 | 36.59323 | -5.96766 | 15319 ft | 322 kts | 347° |
| 2026-04-14 12:36 | 36.61510 | -5.97358 | 14951 ft | 321 kts | 347° |
| 2026-04-14 12:36 | 36.63692 | -5.97942 | 14587 ft | 320 kts | 347° |
| 2026-04-14 12:36 | 36.65865 | -5.98518 | 14235 ft | 319 kts | 347° |
| 2026-04-14 12:37 | 36.68028 | -5.99090 | 13886 ft | 317 kts | 347° |
| 2026-04-14 12:37 | 36.70183 | -5.99659 | 13534 ft | 316 kts | 348° |
| 2026-04-14 12:37 | 36.72324 | -6.00224 | 13189 ft | 314 kts | 347° |
| 2026-04-14 12:37 | 36.74458 | -6.00787 | 12838 ft | 313 kts | 347° |
| 2026-04-14 12:38 | 36.78699 | -6.01906 | 12128 ft | 311 kts | 347° |
| 2026-04-14 12:38 | 36.80811 | -6.02464 | 11774 ft | 310 kts | 347° |
| 2026-04-14 12:38 | 36.82928 | -6.02944 | 11429 ft | 308 kts | 351° |
| 2026-04-14 12:39 | 36.85046 | -6.03280 | 11085 ft | 307 kts | 353° |
| 2026-04-14 12:39 | 36.87164 | -6.03577 | 10746 ft | 305 kts | 353° |
| 2026-04-14 12:39 | 36.89277 | -6.03869 | 10412 ft | 304 kts | 353° |
| 2026-04-14 12:39 | 36.91343 | -6.04160 | 10129 ft | 301 kts | 353° |
| 2026-04-14 12:40 | 36.93425 | -6.04461 | 9934 ft | 295 kts | 353° |
| 2026-04-14 12:40 | 36.95419 | -6.04753 | 9920 ft | 282 kts | 353° |
| 2026-04-14 12:40 | 36.97349 | -6.05040 | 9519 ft | 284 kts | 353° |
| 2026-04-14 12:40 | 36.99341 | -6.05338 | 9059 ft | 290 kts | 353° |
| 2026-04-14 12:41 | 37.01349 | -6.05638 | 8657 ft | 292 kts | 353° |
| 2026-04-14 12:41 | 37.03338 | -6.05937 | 8325 ft | 291 kts | 353° |
| 2026-04-14 12:41 | 37.05349 | -6.06240 | 7989 ft | 291 kts | 353° |
| 2026-04-14 12:41 | 37.07360 | -6.06543 | 7655 ft | 290 kts | 353° |
| 2026-04-14 12:42 | 37.09347 | -6.06843 | 7323 ft | 289 kts | 353° |
| 2026-04-14 12:42 | 37.11345 | -6.07145 | 6994 ft | 287 kts | 353° |
| 2026-04-14 12:42 | 37.13326 | -6.07446 | 6677 ft | 286 kts | 353° |
| 2026-04-14 12:42 | 37.15303 | -6.07745 | 6354 ft | 285 kts | 353° |
| 2026-04-14 12:43 | 37.17266 | -6.08043 | 6034 ft | 284 kts | 353° |
| 2026-04-14 12:43 | 37.18589 | -6.08243 | 5819 ft | 283 kts | 353° |
| 2026-04-14 12:43 | 37.20542 | -6.08540 | 5512 ft | 282 kts | 353° |
| 2026-04-14 12:43 | 37.22488 | -6.08835 | 5177 ft | 281 kts | 353° |
| 2026-04-14 12:44 | 37.24417 | -6.09126 | 4887 ft | 279 kts | 353° |
| 2026-04-14 12:44 | 37.26346 | -6.09418 | 4578 ft | 279 kts | 352° |
| 2026-04-14 12:44 | 37.28274 | -6.09712 | 4257 ft | 278 kts | 353° |
| 2026-04-14 12:45 | 37.32075 | -6.10292 | 3853 ft | 269 kts | 353° |
| 2026-04-14 12:45 | 37.33905 | -6.10569 | 3744 ft | 262 kts | 353° |
| 2026-04-14 12:45 | 37.35692 | -6.10842 | 3617 ft | 255 kts | 352° |
| 2026-04-14 12:45 | 37.37430 | -6.11106 | 3517 ft | 248 kts | 352° |
| 2026-04-14 12:46 | 37.39088 | -6.11360 | 3447 ft | 238 kts | 353° |
| 2026-04-14 12:46 | 37.40693 | -6.11155 | 3302 ft | 227 kts | 26° |
| 2026-04-14 12:46 | 37.41714 | -6.09815 | 3203 ft | 215 kts | 70° |
| 2026-04-14 12:46 | 37.41837 | -6.08016 | 3185 ft | 200 kts | 93° |
| 2026-04-14 12:47 | 37.41760 | -6.06242 | 2657 ft | 212 kts | 93° |
| 2026-04-14 12:47 | 37.41729 | -6.04349 | 2191 ft | 215 kts | 90° |
| 2026-04-14 12:47 | 37.41740 | -6.02501 | 1890 ft | 209 kts | 90° |
| 2026-04-14 12:47 | 37.41748 | -6.00716 | 1642 ft | 199 kts | 90° |
| 2026-04-14 12:48 | 37.41755 | -5.99020 | 1358 ft | 188 kts | 89° |
| 2026-04-14 12:48 | 37.41762 | -5.97453 | 1143 ft | 175 kts | 90° |
| 2026-04-14 12:48 | 37.41768 | -5.95971 | 949 ft | 160 kts | 90° |
| 2026-04-14 12:48 | 37.41776 | -5.94606 | 611 ft | 154 kts | 89° |
| 2026-04-14 12:49 | 37.41785 | -5.93307 | 383 ft | 143 kts | 90° |
| 2026-04-14 12:49 | 37.41784 | -5.92108 | 201 ft | 135 kts | 89° |
| 2026-04-14 12:49 | 37.41788 | -5.90973 | 97 ft | 122 kts | 89° |
| 2026-04-14 12:49 | 37.41794 | -5.90076 | 101 ft | 74 kts | 90° |
| 2026-04-14 12:50 | 37.41794 | -5.89559 | 101 ft | 53 kts | 90° |
| 2026-04-14 12:50 | 37.41838 | -5.89254 | 103 ft | 2 kts | 346° |
| 2026-04-14 12:50 | 37.41858 | -5.89266 | 103 ft | 6 kts | 335° |
| 2026-04-14 12:51 | 37.41906 | -5.89298 | 101 ft | 10 kts | 330° |
| 2026-04-14 12:51 | 37.41991 | -5.89371 | 99 ft | 15 kts | 321° |
| 2026-04-14 12:51 | 37.42071 | -5.89470 | 99 ft | 17 kts | 314° |
| 2026-04-14 12:51 | 37.42161 | -5.89587 | 98 ft | 20 kts | 316° |
| 2026-04-14 12:52 | 37.42183 | -5.89660 | 97 ft | 5 kts | 234° |
| 2026-04-14 12:52 | 37.42144 | -5.89691 | 99 ft | 8 kts | 212° |
| 2026-04-14 12:52 | 37.42091 | -5.89739 | 98 ft | 10 kts | 221° |
| 2026-04-14 12:52 | 37.42034 | -5.89806 | 99 ft | 12 kts | 232° |
| 2026-04-14 12:53 | 37.42003 | -5.89863 | 100 ft | 3 kts | 258° |
| 2026-04-14 12:53 | 37.42020 | -5.89894 | 99 ft | 6 kts | 329° |
| 2026-04-14 12:53 | 37.42051 | -5.89956 | 100 ft | 12 kts | 279° |
| 2026-04-14 12:53 | 37.42054 | -5.90041 | 101 ft | 2 kts | 300° |
| 2026-04-14 12:54 | 37.42074 | -5.90048 | 100 ft | 6 kts | 354° |
| 2026-04-14 12:54 | 37.42118 | -5.90050 | 98 ft | 0 kts | 3° |
| 2026-04-14 12:54 | 37.42119 | -5.90050 | 98 ft | 0 kts | 3° |